createdAt,value
2023-05-21T00:00:19.962Z,57.46
2023-05-21T00:01:19.935Z,57.27
2023-05-21T00:02:20.036Z,57.13
2023-05-21T00:03:19.998Z,56.85
2023-05-21T00:04:19.932Z,56.84
2023-05-21T00:05:19.949Z,56.93
2023-05-21T00:06:19.971Z,57.25
2023-05-21T00:07:19.956Z,57.10
2023-05-21T00:08:19.884Z,57.15
2023-05-21T00:09:19.880Z,57.00
2023-05-21T00:10:19.865Z,56.98
2023-05-21T00:11:19.906Z,57.01
2023-05-21T00:12:19.810Z,56.88
2023-05-21T00:13:19.784Z,56.87
2023-05-21T00:14:19.765Z,57.01
2023-05-21T00:15:19.742Z,57.18
2023-05-21T00:16:19.762Z,57.12
2023-05-21T00:17:19.749Z,57.84
2023-05-21T00:18:19.620Z,57.95
2023-05-21T00:19:19.620Z,57.50
2023-05-21T00:20:19.538Z,57.65
2023-05-21T00:21:19.489Z,57.62
2023-05-21T00:22:19.459Z,57.52
2023-05-21T00:23:19.402Z,57.35
2023-05-21T00:24:19.330Z,56.92
2023-05-21T00:25:19.292Z,56.75
2023-05-21T00:26:19.241Z,56.67
2023-05-21T00:27:19.241Z,56.92
2023-05-21T00:28:19.273Z,57.46
2023-05-21T00:29:19.143Z,57.78
2023-05-21T00:30:19.092Z,57.60
2023-05-21T00:31:19.091Z,57.70
2023-05-21T00:32:19.011Z,57.50
2023-05-21T00:33:18.968Z,57.31
2023-05-21T00:34:18.900Z,56.96
2023-05-21T00:35:18.847Z,57.00
2023-05-21T00:36:18.783Z,56.86
2023-05-21T00:37:18.738Z,56.90
2023-05-21T00:38:18.778Z,57.43
2023-05-21T00:39:18.661Z,57.34
2023-05-21T00:40:18.635Z,57.46
2023-05-21T00:41:18.552Z,57.83
2023-05-21T00:42:18.522Z,57.87
2023-05-21T00:43:18.465Z,58.00
2023-05-21T00:44:18.408Z,57.85
2023-05-21T00:45:18.368Z,57.54
2023-05-21T00:46:18.380Z,57.74
2023-05-21T00:47:18.317Z,57.93
2023-05-21T00:48:18.243Z,57.88
2023-05-21T00:49:18.209Z,58.03
2023-05-21T00:50:18.203Z,57.93
2023-05-21T00:51:18.142Z,57.66
2023-05-21T00:52:18.094Z,57.40
2023-05-21T00:53:18.064Z,57.76
2023-05-21T00:54:18.025Z,57.83
2023-05-21T00:55:17.990Z,57.80
2023-05-21T00:56:17.943Z,57.56
2023-05-21T00:57:17.894Z,57.40
2023-05-21T00:58:17.859Z,57.39
2023-05-21T00:59:17.808Z,57.54
2023-05-21T01:00:17.781Z,57.62
2023-05-21T01:01:17.798Z,57.69
2023-05-21T01:02:17.725Z,57.63
2023-05-21T01:03:17.737Z,57.95
2023-05-21T01:04:17.689Z,57.88
2023-05-21T01:05:17.612Z,58.15
2023-05-21T01:06:17.622Z,58.14
2023-05-21T01:07:17.545Z,58.17
2023-05-21T01:08:17.501Z,58.28
2023-05-21T01:09:17.452Z,58.25
2023-05-21T01:10:17.429Z,58.50
2023-05-21T01:11:17.381Z,58.51
2023-05-21T01:12:17.337Z,58.40
2023-05-21T01:13:17.309Z,58.15
2023-05-21T01:14:17.275Z,58.37
2023-05-21T01:15:17.205Z,58.25
2023-05-21T01:16:17.260Z,58.15
2023-05-21T01:17:17.148Z,58.12
2023-05-21T01:18:17.095Z,58.19
2023-05-21T01:19:17.123Z,58.15
2023-05-21T01:20:17.002Z,58.16
2023-05-21T01:21:16.953Z,58.18
2023-05-21T01:22:16.928Z,57.93
2023-05-21T01:23:16.896Z,57.99
2023-05-21T01:24:16.832Z,58.35
2023-05-21T01:25:16.804Z,58.76
2023-05-21T01:26:16.807Z,58.52
2023-05-21T01:27:16.713Z,58.64
2023-05-21T01:28:16.658Z,58.78
2023-05-21T01:29:16.623Z,58.50
2023-05-21T01:30:16.589Z,58.44
2023-05-21T01:31:16.655Z,58.39
2023-05-21T01:32:16.519Z,58.10
2023-05-21T01:33:16.575Z,57.90
2023-05-21T01:34:16.465Z,57.88
2023-05-21T01:35:16.495Z,58.05
2023-05-21T01:36:16.429Z,58.45
2023-05-21T01:37:16.424Z,58.58
2023-05-21T01:38:16.402Z,58.53
2023-05-21T01:39:16.388Z,58.59
2023-05-21T01:40:16.380Z,58.34
2023-05-21T01:41:16.390Z,58.37
2023-05-21T01:42:16.369Z,58.14
2023-05-21T01:43:16.368Z,57.90
2023-05-21T01:44:16.417Z,57.73
2023-05-21T01:45:16.397Z,57.65
2023-05-21T01:46:16.470Z,57.84
2023-05-21T01:47:16.395Z,57.72
2023-05-21T01:48:16.455Z,57.83
2023-05-21T01:49:16.417Z,57.95
2023-05-21T01:50:16.393Z,58.03
2023-05-21T01:51:16.362Z,58.24
2023-05-21T01:52:16.363Z,57.94
2023-05-21T01:53:16.353Z,57.74
2023-05-21T01:54:16.351Z,57.64
2023-05-21T01:55:16.362Z,57.71
2023-05-21T01:56:16.334Z,57.70
2023-05-21T01:57:16.353Z,57.92
2023-05-21T01:58:16.375Z,57.91
2023-05-21T01:59:16.391Z,57.90
2023-05-21T02:00:16.398Z,58.19
2023-05-21T02:01:16.369Z,58.13
2023-05-21T02:02:16.463Z,58.11
2023-05-21T02:03:16.532Z,58.18
2023-05-21T02:04:16.397Z,58.14
2023-05-21T02:05:16.421Z,58.27
2023-05-21T02:06:16.401Z,58.41
2023-05-21T02:07:16.391Z,58.61
2023-05-21T02:08:16.385Z,58.56
2023-05-21T02:09:16.373Z,58.77
2023-05-21T02:10:16.383Z,58.88
2023-05-21T02:11:16.387Z,58.67
2023-05-21T02:12:16.450Z,58.72
2023-05-21T02:13:16.400Z,59.08
2023-05-21T02:14:16.477Z,59.27
2023-05-21T02:15:16.379Z,59.40
2023-05-21T02:16:16.447Z,59.26
2023-05-21T02:17:16.469Z,59.14
2023-05-21T02:18:16.394Z,58.84
2023-05-21T02:19:16.500Z,58.76
2023-05-21T02:20:16.408Z,59.03
2023-05-21T02:21:16.391Z,59.08
2023-05-21T02:22:16.395Z,59.05
2023-05-21T02:23:16.439Z,58.96
2023-05-21T02:24:16.451Z,59.01
2023-05-21T02:25:16.470Z,59.02
2023-05-21T02:26:16.473Z,58.86
2023-05-21T02:27:16.438Z,58.76
2023-05-21T02:28:16.466Z,58.85
2023-05-21T02:29:16.444Z,58.99
2023-05-21T02:30:16.463Z,59.10
2023-05-21T02:31:16.472Z,59.26
2023-05-21T02:32:16.482Z,59.28
2023-05-21T02:33:16.491Z,59.20
2023-05-21T02:34:16.540Z,59.07
2023-05-21T02:35:16.521Z,58.83
2023-05-21T02:36:16.533Z,58.82
2023-05-21T02:37:16.566Z,58.71
2023-05-21T02:38:16.608Z,58.71
2023-05-21T02:39:16.612Z,58.71
2023-05-21T02:40:16.617Z,58.64
2023-05-21T02:41:16.633Z,58.61
2023-05-21T02:42:16.682Z,58.94
2023-05-21T02:43:16.704Z,59.18
2023-05-21T02:44:16.676Z,59.33
2023-05-21T02:45:16.696Z,59.03
2023-05-21T02:46:16.747Z,58.99
2023-05-21T02:47:16.704Z,59.05
2023-05-21T02:48:16.710Z,58.79
2023-05-21T02:49:16.730Z,58.51
2023-05-21T02:50:16.759Z,58.46
2023-05-21T02:51:16.778Z,58.59
2023-05-21T02:52:16.799Z,58.56
2023-05-21T02:53:16.818Z,58.92
2023-05-21T02:54:16.861Z,59.20
2023-05-21T02:55:16.855Z,58.97
2023-05-21T02:56:16.880Z,59.22
2023-05-21T02:57:16.874Z,59.03
2023-05-21T02:58:16.907Z,58.97
2023-05-21T02:59:16.890Z,58.83
2023-05-21T03:00:16.900Z,58.75
2023-05-21T03:01:16.962Z,58.68
2023-05-21T03:02:16.970Z,58.59
2023-05-21T03:03:17.076Z,58.65
2023-05-21T03:04:16.972Z,58.85
2023-05-21T03:05:17.003Z,59.03
2023-05-21T03:06:17.020Z,59.02
2023-05-21T03:07:17.049Z,59.27
2023-05-21T03:08:17.075Z,59.60
2023-05-21T03:09:17.118Z,59.50
2023-05-21T03:10:17.136Z,59.35
2023-05-21T03:11:17.160Z,59.61
2023-05-21T03:12:17.156Z,59.52
2023-05-21T03:13:17.229Z,59.27
2023-05-21T03:14:17.200Z,59.25
2023-05-21T03:15:17.256Z,59.33
2023-05-21T03:16:17.325Z,59.17
2023-05-21T03:17:17.297Z,59.02
2023-05-21T03:18:17.352Z,59.00
2023-05-21T03:19:17.405Z,58.88
2023-05-21T03:20:17.418Z,58.92
2023-05-21T03:21:17.430Z,59.03
2023-05-21T03:22:17.467Z,59.11
2023-05-21T03:23:17.517Z,59.16
2023-05-21T03:24:17.686Z,59.25
2023-05-21T03:25:17.593Z,59.24
2023-05-21T03:26:17.711Z,59.20
2023-05-21T03:27:17.665Z,59.30
2023-05-21T03:28:17.705Z,59.41
2023-05-21T03:29:17.717Z,59.44
2023-05-21T03:30:17.756Z,59.46
2023-05-21T03:31:17.769Z,59.46
2023-05-21T03:32:17.879Z,59.36
2023-05-21T03:33:17.823Z,59.42
2023-05-21T03:34:17.848Z,59.51
2023-05-21T03:35:17.856Z,59.50
2023-05-21T03:36:17.856Z,59.43
2023-05-21T03:37:17.864Z,59.58
2023-05-21T03:38:17.923Z,59.52
2023-05-21T03:39:17.952Z,59.62
2023-05-21T03:40:17.962Z,59.70
2023-05-21T03:41:17.960Z,59.91
2023-05-21T03:42:17.980Z,60.20
2023-05-21T03:43:18.005Z,60.11
2023-05-21T03:44:18.026Z,60.01
2023-05-21T03:45:18.040Z,60.25
2023-05-21T03:46:18.149Z,60.45
2023-05-21T03:47:18.149Z,60.27
2023-05-21T03:48:18.130Z,60.38
2023-05-21T03:49:18.757Z,60.63
2023-05-21T03:50:18.216Z,60.32
2023-05-21T03:51:18.294Z,60.41
2023-05-21T03:52:18.245Z,60.30
2023-05-21T03:53:18.265Z,60.28
2023-05-21T03:54:18.291Z,60.23
2023-05-21T03:55:18.357Z,60.11
2023-05-21T03:56:18.320Z,60.16
2023-05-21T03:57:18.377Z,60.06
2023-05-21T03:58:18.393Z,60.15
2023-05-21T03:59:18.418Z,60.09
2023-05-21T04:00:18.450Z,60.07
2023-05-21T04:01:18.469Z,59.92
2023-05-21T04:02:18.655Z,59.94
2023-05-21T04:03:18.831Z,60.07
2023-05-21T04:04:18.646Z,59.99
2023-05-21T04:05:18.631Z,60.46
2023-05-21T04:06:18.740Z,60.56
2023-05-21T04:07:18.758Z,60.52
2023-05-21T04:08:18.703Z,60.60
2023-05-21T04:09:18.752Z,60.60
2023-05-21T04:10:18.772Z,60.85
2023-05-21T04:11:18.788Z,60.59
2023-05-21T04:12:19.758Z,60.65
2023-05-21T04:13:18.726Z,60.42
2023-05-21T04:14:18.684Z,60.32
2023-05-21T04:15:18.682Z,60.24
2023-05-21T04:16:18.659Z,60.35
2023-05-21T04:17:18.601Z,60.37
2023-05-21T04:18:18.582Z,60.35
2023-05-21T04:19:18.618Z,60.25
2023-05-21T04:20:18.522Z,60.47
2023-05-21T04:21:18.480Z,60.41
2023-05-21T04:22:18.482Z,60.28
2023-05-21T04:23:18.453Z,60.41
2023-05-21T04:24:18.395Z,60.36
2023-05-21T04:25:18.413Z,60.26
2023-05-21T04:26:18.342Z,59.89
2023-05-21T04:27:18.372Z,60.16
2023-05-21T04:28:18.266Z,60.18
2023-05-21T04:29:18.221Z,60.21
2023-05-21T04:30:18.188Z,60.34
2023-05-21T04:31:18.201Z,60.41
2023-05-21T04:32:18.123Z,60.51
2023-05-21T04:33:18.581Z,60.34
2023-05-21T04:34:18.085Z,60.41
2023-05-21T04:35:18.062Z,60.44
2023-05-21T04:36:18.095Z,60.41
2023-05-21T04:37:18.003Z,60.47
2023-05-21T04:38:18.061Z,60.62
2023-05-21T04:39:17.989Z,60.83
2023-05-21T04:40:18.034Z,60.62
2023-05-21T04:41:17.961Z,60.70
2023-05-21T04:42:17.973Z,60.71
2023-05-21T04:43:17.980Z,60.77
2023-05-21T04:44:18.110Z,60.73
2023-05-21T04:45:18.013Z,60.56
2023-05-21T04:46:18.048Z,60.56
2023-05-21T04:47:17.951Z,60.29
2023-05-21T04:48:17.907Z,60.26
2023-05-21T04:49:17.877Z,60.40
2023-05-21T04:50:17.850Z,60.47
2023-05-21T04:51:17.850Z,60.32
2023-05-21T04:52:17.869Z,60.34
2023-05-21T04:53:17.761Z,60.32
2023-05-21T04:54:17.736Z,60.11
2023-05-21T04:55:17.723Z,60.06
2023-05-21T04:56:17.694Z,59.97
2023-05-21T04:57:17.619Z,59.86
2023-05-21T04:58:17.616Z,59.87
2023-05-21T04:59:17.570Z,60.06
2023-05-21T05:00:17.614Z,59.95
2023-05-21T05:01:17.537Z,59.94
2023-05-21T05:02:17.534Z,60.10
2023-05-21T05:03:17.513Z,60.77
2023-05-21T05:04:17.411Z,60.40
2023-05-21T05:05:17.373Z,60.01
2023-05-21T05:06:17.404Z,59.88
2023-05-21T05:07:17.300Z,59.79
2023-05-21T05:08:17.237Z,59.63
2023-05-21T05:09:17.210Z,59.78
2023-05-21T05:10:17.167Z,59.67
2023-05-21T05:11:17.152Z,59.63
2023-05-21T05:12:17.140Z,59.85
2023-05-21T05:13:17.127Z,59.77
2023-05-21T05:14:17.027Z,59.56
2023-05-21T05:15:17.034Z,59.39
2023-05-21T05:16:16.988Z,58.93
2023-05-21T05:17:16.993Z,58.79
2023-05-21T05:18:16.915Z,58.65
2023-05-21T05:19:16.917Z,58.61
2023-05-21T05:20:16.822Z,58.57
2023-05-21T05:21:16.755Z,58.43
2023-05-21T05:22:16.721Z,58.38
2023-05-21T05:23:16.691Z,58.41
2023-05-21T05:24:16.672Z,58.57
2023-05-21T05:25:16.698Z,58.48
2023-05-21T05:26:16.737Z,58.37
2023-05-21T05:27:16.787Z,58.35
2023-05-21T05:28:16.780Z,58.34
2023-05-21T05:29:16.772Z,58.37
2023-05-21T05:30:16.781Z,58.56
2023-05-21T05:31:16.832Z,58.44
2023-05-21T05:32:16.796Z,58.27
2023-05-21T05:33:16.863Z,58.39
2023-05-21T05:34:16.791Z,58.14
2023-05-21T05:35:16.787Z,58.08
2023-05-21T05:36:16.821Z,58.19
2023-05-21T05:37:16.805Z,58.35
2023-05-21T05:38:16.794Z,58.34
2023-05-21T05:39:16.865Z,58.43
2023-05-21T05:40:16.803Z,58.43
2023-05-21T05:41:16.797Z,58.17
2023-05-21T05:42:16.810Z,58.10
2023-05-21T05:43:16.864Z,58.37
2023-05-21T05:44:16.866Z,58.41
2023-05-21T05:45:16.886Z,58.50
2023-05-21T05:46:16.960Z,58.67
2023-05-21T05:47:16.954Z,58.99
2023-05-21T05:48:16.967Z,59.20
2023-05-21T05:49:17.006Z,59.28
2023-05-21T05:50:17.024Z,59.17
2023-05-21T05:51:17.059Z,59.03
2023-05-21T05:52:17.083Z,58.95
2023-05-21T05:53:17.076Z,58.73
2023-05-21T05:54:17.076Z,58.64
2023-05-21T05:55:17.107Z,58.51
2023-05-21T05:56:17.190Z,58.56
2023-05-21T05:57:17.133Z,58.50
2023-05-21T05:58:17.081Z,58.66
2023-05-21T05:59:17.060Z,58.54
2023-05-21T06:00:17.032Z,58.06
2023-05-21T06:01:17.034Z,57.96
2023-05-21T06:02:17.053Z,57.99
2023-05-21T06:03:17.045Z,57.81
2023-05-21T06:04:16.984Z,57.96
2023-05-21T06:05:17.183Z,57.52
2023-05-21T06:06:17.122Z,57.46
2023-05-21T06:07:17.027Z,57.27
2023-05-21T06:08:17.031Z,57.16
2023-05-21T06:09:17.045Z,57.10
2023-05-21T06:10:17.057Z,56.99
2023-05-21T06:11:17.166Z,57.26
2023-05-21T06:12:17.108Z,57.54
2023-05-21T06:13:17.111Z,57.64
2023-05-21T06:14:17.121Z,57.81
2023-05-21T06:15:17.214Z,57.81
2023-05-21T06:16:17.246Z,57.61
2023-05-21T06:17:17.133Z,57.49
2023-05-21T06:18:17.146Z,57.31
2023-05-21T06:19:17.189Z,57.05
2023-05-21T06:20:17.097Z,56.76
2023-05-21T06:21:17.106Z,56.34
2023-05-21T06:22:17.075Z,56.40
2023-05-21T06:23:17.058Z,56.35
2023-05-21T06:24:17.041Z,56.54
2023-05-21T06:25:17.039Z,56.41
2023-05-21T06:26:16.996Z,56.43
2023-05-21T06:27:16.989Z,56.48
2023-05-21T06:28:16.942Z,56.64
2023-05-21T06:29:16.904Z,56.71
2023-05-21T06:30:16.900Z,56.44
2023-05-21T06:31:16.854Z,56.23
2023-05-21T06:32:17.095Z,56.39
2023-05-21T06:33:16.894Z,56.32
2023-05-21T06:34:16.753Z,56.39
2023-05-21T06:35:16.735Z,56.75
2023-05-21T06:36:16.734Z,57.28
2023-05-21T06:37:16.626Z,57.35
2023-05-21T06:38:16.584Z,57.18
2023-05-21T06:39:16.668Z,57.14
2023-05-21T06:40:17.007Z,57.31
2023-05-21T06:41:17.033Z,57.38
2023-05-21T06:42:17.210Z,57.62
2023-05-21T06:43:17.443Z,57.39
2023-05-21T06:44:17.615Z,56.79
2023-05-21T06:45:17.818Z,56.46
2023-05-21T06:46:18.082Z,56.31
2023-05-21T06:47:18.176Z,56.19
2023-05-21T06:48:18.358Z,55.87
2023-05-21T06:49:18.559Z,55.48
2023-05-21T06:50:18.749Z,55.24
2023-05-21T06:51:18.949Z,55.34
2023-05-21T06:52:19.165Z,55.65
2023-05-21T06:53:19.348Z,55.64
2023-05-21T06:54:19.602Z,55.54
2023-05-21T06:55:19.724Z,54.89
2023-05-21T06:56:19.883Z,55.08
2023-05-21T06:57:20.096Z,55.26
2023-05-21T06:58:20.235Z,55.36
2023-05-21T06:59:20.370Z,55.23
2023-05-21T07:00:20.541Z,55.30
2023-05-21T07:01:20.732Z,54.77
2023-05-21T07:02:20.924Z,54.37
2023-05-21T07:03:21.071Z,54.39
2023-05-21T07:04:21.254Z,53.86
2023-05-21T07:05:21.384Z,53.63
2023-05-21T07:06:21.597Z,54.12
2023-05-21T07:07:21.692Z,53.74
2023-05-21T07:08:21.932Z,53.20
2023-05-21T07:09:22.139Z,53.14
2023-05-21T07:10:22.317Z,53.12
2023-05-21T07:11:22.546Z,53.26
2023-05-21T07:12:22.632Z,53.61
2023-05-21T07:13:22.786Z,53.87
2023-05-21T07:14:22.951Z,53.67
2023-05-21T07:15:23.104Z,53.43
2023-05-21T07:16:23.312Z,53.61
2023-05-21T07:17:23.497Z,53.52
2023-05-21T07:18:23.669Z,52.87
2023-05-21T07:19:23.821Z,52.97
2023-05-21T07:20:23.908Z,53.38
2023-05-21T07:21:24.023Z,53.30
2023-05-21T07:22:25.949Z,53.26
2023-05-21T07:23:24.092Z,52.88
2023-05-21T07:24:23.986Z,52.82
2023-05-21T07:25:23.918Z,53.22
2023-05-21T07:26:23.853Z,52.55
2023-05-21T07:27:25.667Z,52.35
2023-05-21T07:28:23.709Z,53.55
2023-05-21T07:29:23.651Z,53.61
2023-05-21T07:30:23.613Z,53.59
2023-05-21T07:31:23.626Z,53.54
2023-05-21T07:32:23.612Z,52.81
2023-05-21T07:33:23.532Z,53.28
2023-05-21T07:34:23.465Z,53.53
2023-05-21T07:35:23.414Z,53.66
2023-05-21T07:36:23.380Z,52.62
2023-05-21T07:37:23.402Z,52.28
2023-05-21T07:38:23.320Z,52.04
2023-05-21T07:39:23.288Z,51.78
2023-05-21T07:40:23.252Z,51.95
2023-05-21T07:41:23.255Z,51.71
2023-05-21T07:42:23.213Z,51.82
2023-05-21T07:43:23.197Z,51.48
2023-05-21T07:44:23.158Z,51.29
2023-05-21T07:45:23.398Z,51.62
2023-05-21T07:46:23.531Z,51.71
2023-05-21T07:47:23.766Z,51.94
2023-05-21T07:48:23.909Z,51.98
2023-05-21T07:49:24.071Z,51.51
2023-05-21T07:50:24.216Z,50.21
2023-05-21T07:51:24.364Z,49.82
2023-05-21T07:52:24.614Z,49.21
2023-05-21T07:53:24.713Z,49.35
2023-05-21T07:54:24.888Z,49.73
2023-05-21T07:55:25.049Z,50.14
2023-05-21T07:56:25.206Z,50.61
2023-05-21T07:57:25.404Z,51.00
2023-05-21T07:58:25.518Z,51.16
2023-05-21T07:59:25.664Z,50.51
2023-05-21T08:00:25.816Z,49.65
2023-05-21T08:01:25.935Z,49.56
2023-05-21T08:02:26.235Z,49.81
2023-05-21T08:03:26.413Z,50.27
2023-05-21T08:04:26.271Z,50.84
2023-05-21T08:05:26.102Z,50.37
2023-05-21T08:06:26.019Z,49.97
2023-05-21T08:07:25.965Z,49.86
2023-05-21T08:08:25.888Z,49.84
2023-05-21T08:09:25.818Z,49.95
2023-05-21T08:10:25.745Z,49.18
2023-05-21T08:11:25.650Z,49.04
2023-05-21T08:12:25.644Z,48.92
2023-05-21T08:13:25.564Z,48.68
2023-05-21T08:14:25.518Z,49.40
2023-05-21T08:15:25.363Z,49.13
2023-05-21T08:16:25.397Z,48.87
2023-05-21T08:17:25.242Z,48.87
2023-05-21T08:18:25.179Z,47.99
2023-05-21T08:19:25.124Z,48.17
2023-05-21T08:20:25.005Z,47.98
2023-05-21T08:21:24.918Z,47.05
2023-05-21T08:22:24.908Z,47.54
2023-05-21T08:23:25.027Z,47.17
2023-05-21T08:24:25.160Z,47.02
2023-05-21T08:25:25.327Z,47.17
2023-05-21T08:26:25.493Z,46.68
2023-05-21T08:27:25.660Z,45.79
2023-05-21T08:28:25.856Z,45.68
2023-05-21T08:29:25.940Z,46.29
2023-05-21T08:30:26.071Z,46.54
2023-05-21T08:31:26.224Z,46.85
2023-05-21T08:32:26.367Z,47.13
2023-05-21T08:33:26.543Z,46.81
2023-05-21T08:34:26.738Z,45.75
2023-05-21T08:35:26.821Z,45.10
2023-05-21T08:36:26.985Z,44.77
2023-05-21T08:37:27.163Z,44.33
2023-05-21T08:38:29.494Z,44.44
2023-05-21T08:39:27.267Z,44.43
2023-05-21T08:40:27.166Z,43.59
2023-05-21T08:41:27.045Z,42.20
2023-05-21T08:42:36.453Z,41.67
2023-05-21T08:43:27.838Z,40.27
2023-05-21T08:44:26.704Z,41.95
2023-05-21T08:45:26.576Z,42.25
2023-05-21T08:46:26.548Z,42.26
2023-05-21T08:47:26.348Z,41.78
2023-05-21T08:48:26.254Z,41.59
2023-05-21T08:49:27.312Z,41.80
2023-05-21T08:50:26.020Z,42.20
2023-05-21T08:51:25.944Z,42.34
2023-05-21T08:52:25.734Z,42.62
2023-05-21T08:53:28.595Z,42.32
2023-05-21T08:54:25.492Z,41.61
2023-05-21T08:55:25.353Z,41.61
2023-05-21T08:56:25.227Z,40.88
2023-05-21T08:57:25.165Z,41.48
2023-05-21T08:58:24.985Z,41.68
2023-05-21T08:59:25.087Z,40.71
2023-05-21T09:00:25.238Z,41.21
2023-05-21T09:01:26.560Z,42.08
2023-05-21T09:02:25.288Z,41.77
2023-05-21T09:03:25.135Z,42.59
2023-05-21T09:04:24.972Z,40.27
2023-05-21T09:05:24.828Z,40.08
2023-05-21T09:06:24.710Z,40.10
2023-05-21T09:07:24.574Z,41.68
2023-05-21T09:08:24.444Z,42.46
2023-05-21T09:09:24.317Z,41.50
2023-05-21T09:10:24.255Z,43.26
2023-05-21T09:11:24.139Z,43.20
2023-05-21T09:12:23.947Z,41.78
2023-05-21T09:13:23.854Z,40.55
2023-05-21T09:14:23.668Z,40.49
2023-05-21T09:15:23.516Z,41.11
2023-05-21T09:16:23.435Z,41.04
2023-05-21T09:17:23.259Z,42.04
2023-05-21T09:18:23.115Z,41.92
2023-05-21T09:19:23.135Z,42.22
2023-05-21T09:20:22.852Z,42.18
2023-05-21T09:21:22.760Z,42.15
2023-05-21T09:22:22.596Z,41.72
2023-05-21T09:23:22.483Z,41.28
2023-05-21T09:24:22.351Z,41.55
2023-05-21T09:25:22.172Z,41.90
2023-05-21T09:26:22.032Z,41.00
2023-05-21T09:27:21.901Z,42.91
2023-05-21T09:28:21.749Z,41.83
2023-05-21T09:29:21.618Z,42.77
2023-05-21T09:30:25.948Z,41.48
2023-05-21T09:31:22.372Z,41.44
2023-05-21T09:32:21.266Z,42.04
2023-05-21T09:33:21.087Z,40.74
2023-05-21T09:34:21.039Z,40.40
2023-05-21T09:35:20.844Z,40.20
2023-05-21T09:36:20.691Z,40.40
2023-05-21T09:38:21.409Z,39.68
2023-05-21T09:39:20.281Z,39.87
2023-05-21T09:40:20.201Z,41.58
2023-05-21T09:41:21.833Z,41.24
2023-05-21T09:42:19.886Z,40.72
2023-05-21T09:43:19.749Z,40.75
2023-05-21T09:44:19.670Z,40.01
2023-05-21T09:45:19.638Z,40.14
2023-05-21T09:46:19.523Z,40.07
2023-05-21T09:47:19.451Z,39.85
2023-05-21T09:48:19.293Z,40.25
2023-05-21T09:49:19.231Z,41.05
2023-05-21T09:50:19.209Z,40.63
2023-05-21T09:51:19.083Z,40.24
2023-05-21T09:52:19.019Z,39.85
2023-05-21T09:53:18.942Z,39.51
2023-05-21T09:54:18.868Z,39.43
2023-05-21T09:55:18.828Z,39.32
2023-05-21T09:56:18.733Z,39.07
2023-05-21T09:57:18.628Z,39.05
2023-05-21T09:58:18.595Z,38.95
2023-05-21T09:59:18.429Z,39.52
2023-05-21T10:00:18.371Z,38.90
2023-05-21T10:01:18.312Z,39.31
2023-05-21T10:02:18.285Z,39.67
2023-05-21T10:03:18.529Z,39.26
2023-05-21T10:04:18.072Z,39.82
2023-05-21T10:05:17.941Z,38.91
2023-05-21T10:06:17.859Z,39.27
2023-05-21T10:07:17.751Z,40.42
2023-05-21T10:08:17.655Z,39.96
2023-05-21T10:09:17.557Z,39.78
2023-05-21T10:10:17.555Z,39.61
2023-05-21T10:11:17.408Z,38.82
2023-05-21T10:12:17.351Z,39.22
2023-05-21T10:13:17.234Z,38.88
2023-05-21T10:14:17.102Z,39.04
2023-05-21T10:15:17.004Z,39.20
2023-05-21T10:16:16.914Z,38.52
2023-05-21T10:17:17.368Z,38.46
2023-05-21T10:18:16.685Z,39.67
2023-05-21T10:19:16.624Z,39.96
2023-05-21T10:20:16.561Z,40.08
2023-05-21T10:21:16.371Z,39.45
2023-05-21T10:22:16.260Z,39.79
2023-05-21T10:23:16.161Z,38.68
2023-05-21T10:24:16.084Z,38.43
2023-05-21T10:25:15.999Z,38.57
2023-05-21T10:26:15.908Z,38.72
2023-05-21T10:27:15.765Z,39.21
2023-05-21T10:28:15.656Z,39.85
2023-05-21T10:29:17.301Z,40.00
2023-05-21T10:30:15.396Z,40.32
2023-05-21T10:31:15.228Z,40.20
2023-05-21T10:32:15.114Z,39.65
2023-05-21T10:33:14.937Z,39.35
2023-05-21T10:34:14.765Z,38.12
2023-05-21T10:35:14.577Z,37.98
2023-05-21T10:36:14.418Z,38.00
2023-05-21T10:37:14.467Z,38.10
2023-05-21T10:38:14.535Z,38.51
2023-05-21T10:39:14.685Z,38.90
2023-05-21T10:40:14.745Z,38.10
2023-05-21T10:41:14.826Z,37.36
2023-05-21T10:42:15.054Z,37.92
2023-05-21T10:43:15.130Z,37.95
2023-05-21T10:44:15.263Z,36.54
2023-05-21T10:45:15.272Z,37.03
2023-05-21T10:46:15.513Z,35.38
2023-05-21T10:47:15.539Z,35.27
2023-05-21T10:48:15.638Z,34.98
2023-05-21T10:49:15.701Z,36.70
2023-05-21T10:50:15.830Z,36.72
2023-05-21T10:51:15.952Z,37.58
2023-05-21T10:52:15.967Z,38.76
2023-05-21T10:53:16.130Z,36.44
2023-05-21T10:54:16.196Z,36.05
2023-05-21T10:55:16.361Z,34.62
2023-05-21T10:56:16.453Z,34.03
2023-05-21T10:57:16.540Z,33.91
2023-05-21T10:58:16.651Z,33.75
2023-05-21T10:59:16.759Z,34.72
2023-05-21T11:00:16.872Z,35.50
2023-05-21T11:01:17.014Z,34.13
2023-05-21T11:02:17.065Z,34.37
2023-05-21T11:03:17.358Z,35.19
2023-05-21T11:04:17.356Z,38.32
2023-05-21T11:05:17.448Z,40.17
2023-05-21T11:06:17.618Z,39.48
2023-05-21T11:07:17.768Z,39.74
2023-05-21T11:08:17.834Z,35.18
2023-05-21T11:09:17.973Z,34.89
2023-05-21T11:10:18.217Z,36.34
2023-05-21T11:11:18.209Z,37.13
2023-05-21T11:12:18.303Z,39.53
2023-05-21T11:13:18.432Z,39.96
2023-05-21T11:14:20.286Z,41.07
2023-05-21T11:15:18.396Z,42.04
2023-05-21T11:16:18.227Z,42.84
2023-05-21T11:17:18.220Z,43.01
2023-05-21T11:18:18.023Z,43.77
2023-05-21T11:19:17.984Z,43.75
2023-05-21T11:20:17.807Z,43.60
2023-05-21T11:21:17.603Z,44.03
2023-05-21T11:22:17.456Z,43.42
2023-05-21T11:23:17.403Z,42.75
2023-05-21T11:24:17.171Z,42.84
2023-05-21T11:25:17.168Z,44.08
2023-05-21T11:26:17.274Z,44.79
2023-05-21T11:27:17.349Z,44.96
2023-05-21T11:28:17.409Z,44.92
2023-05-21T11:29:18.399Z,44.81
2023-05-21T11:30:17.400Z,44.46
2023-05-21T11:31:17.221Z,44.69
2023-05-21T11:32:17.055Z,44.46
2023-05-21T11:33:16.971Z,43.54
2023-05-21T11:34:16.786Z,43.59
2023-05-21T11:35:16.598Z,42.06
2023-05-21T11:36:16.485Z,42.20
2023-05-21T11:37:16.506Z,42.63
2023-05-21T11:38:16.581Z,41.78
2023-05-21T11:39:16.713Z,41.98
2023-05-21T11:40:16.770Z,42.21
2023-05-21T11:41:16.920Z,42.41
2023-05-21T11:42:17.068Z,40.27
2023-05-21T11:43:17.110Z,39.83
2023-05-21T11:44:17.277Z,39.47
2023-05-21T11:45:17.437Z,38.98
2023-05-21T11:46:17.648Z,38.90
2023-05-21T11:47:17.749Z,38.83
2023-05-21T11:48:17.872Z,38.44
2023-05-21T11:49:17.956Z,39.08
2023-05-21T11:50:18.117Z,38.99
2023-05-21T11:51:18.173Z,38.88
2023-05-21T11:52:18.362Z,39.51
2023-05-21T11:53:18.448Z,38.94
2023-05-21T11:54:18.575Z,36.59
2023-05-21T11:55:18.795Z,37.26
2023-05-21T11:56:18.922Z,34.42
2023-05-21T11:57:19.017Z,35.40
2023-05-21T11:58:19.219Z,36.45
2023-05-21T11:59:19.366Z,36.31
2023-05-21T12:00:19.434Z,35.47
2023-05-21T12:01:19.277Z,35.26
2023-05-21T12:02:19.127Z,35.17
2023-05-21T12:03:19.022Z,35.64
2023-05-21T12:04:18.972Z,36.00
2023-05-21T12:05:19.074Z,36.27
2023-05-21T12:06:19.292Z,34.53
2023-05-21T12:07:19.292Z,34.21
2023-05-21T12:08:19.458Z,35.43
2023-05-21T12:09:19.536Z,33.83
2023-05-21T12:10:19.737Z,33.93
2023-05-21T12:11:19.850Z,34.29
2023-05-21T12:12:19.988Z,33.95
2023-05-21T12:13:20.142Z,34.03
2023-05-21T12:14:20.245Z,34.43
2023-05-21T12:15:20.414Z,34.47
2023-05-21T12:16:20.534Z,31.72
2023-05-21T12:17:20.813Z,31.42
2023-05-21T12:18:20.723Z,33.21
2023-05-21T12:19:20.948Z,34.69
2023-05-21T12:20:21.132Z,36.11
2023-05-21T12:21:21.098Z,37.03
2023-05-21T12:22:21.212Z,37.46
2023-05-21T12:23:21.418Z,37.60
2023-05-21T12:24:21.492Z,38.21
2023-05-21T12:25:21.687Z,36.73
2023-05-21T12:26:21.767Z,35.69
2023-05-21T12:27:21.890Z,34.96
2023-05-21T12:28:21.981Z,34.87
2023-05-21T12:29:22.152Z,36.65
2023-05-21T12:30:22.261Z,37.98
2023-05-21T12:31:22.539Z,38.48
2023-05-21T12:32:22.570Z,38.53
2023-05-21T12:33:25.107Z,37.10
2023-05-21T12:34:22.665Z,36.26
2023-05-21T12:35:22.754Z,35.22
2023-05-21T12:36:22.406Z,35.06
2023-05-21T12:37:22.278Z,35.53
2023-05-21T12:38:22.199Z,35.84
2023-05-21T12:39:22.289Z,36.54
2023-05-21T12:40:22.554Z,37.68
2023-05-21T12:41:22.576Z,37.93
2023-05-21T12:42:22.649Z,37.29
2023-05-21T12:43:22.786Z,37.01
2023-05-21T12:44:22.954Z,36.02
2023-05-21T12:45:23.070Z,35.77
2023-05-21T12:46:23.287Z,36.12
2023-05-21T12:47:23.288Z,35.93
2023-05-21T12:48:23.430Z,36.36
2023-05-21T12:49:23.509Z,35.91
2023-05-21T12:50:23.637Z,35.65
2023-05-21T12:51:23.718Z,35.56
2023-05-21T12:52:23.933Z,35.84
2023-05-21T12:53:23.997Z,35.79